sensor_id;sensor_type;location;lat;lon;timestamp;pressure;altitude;pressure_sealevel;temperature;humidity
10897;BME280;5501;51.176;6.470;2023-02-02T00:00:46;101574.16;;;8.54;100.00
10897;BME280;5501;51.176;6.470;2023-02-02T00:05:50;101571.56;;;8.46;100.00
10897;BME280;5501;51.176;6.470;2023-02-02T00:10:52;101560.03;;;8.56;99.77
10897;BME280;5501;51.176;6.470;2023-02-02T00:15:53;101568.00;;;8.56;99.79
10897;BME280;5501;51.176;6.470;2023-02-02T00:20:55;101552.03;;;8.62;99.37
10897;BME280;5501;51.176;6.470;2023-02-02T00:25:56;101559.13;;;8.60;99.84
10897;BME280;5501;51.176;6.470;2023-02-02T00:30:58;101546.78;;;8.55;100.00
10897;BME280;5501;51.176;6.470;2023-02-02T00:35:59;101549.47;;;8.50;100.00
10897;BME280;5501;51.176;6.470;2023-02-02T00:41:01;101544.13;;;8.56;100.00
10897;BME280;5501;51.176;6.470;2023-02-02T00:46:02;101541.50;;;8.53;100.00
10897;BME280;5501;51.176;6.470;2023-02-02T00:51:04;101534.47;;;8.46;100.00
10897;BME280;5501;51.176;6.470;2023-02-02T00:56:06;101551.13;;;8.63;99.79
10897;BME280;5501;51.176;6.470;2023-02-02T01:01:15;101547.69;;;8.52;100.00
10897;BME280;5501;51.176;6.470;2023-02-02T01:06:17;101560.94;;;8.52;100.00
10897;BME280;5501;51.176;6.470;2023-02-02T01:11:19;101568.13;;;8.32;100.00
10897;BME280;5501;51.176;6.470;2023-02-02T01:16:21;101577.00;;;8.16;100.00
10897;BME280;5501;51.176;6.470;2023-02-02T01:21:23;101575.22;;;8.26;100.00
10897;BME280;5501;51.176;6.470;2023-02-02T01:26:24;101578.75;;;8.23;100.00
10897;BME280;5501;51.176;6.470;2023-02-02T01:31:26;101572.56;;;8.18;100.00
10897;BME280;5501;51.176;6.470;2023-02-02T01:36:28;101571.72;;;8.13;100.00
10897;BME280;5501;51.176;6.470;2023-02-02T01:41:30;101571.72;;;8.13;100.00
10897;BME280;5501;51.176;6.470;2023-02-02T01:46:33;101585.78;;;8.30;100.00
10897;BME280;5501;51.176;6.470;2023-02-02T01:56:47;101596.41;;;8.15;100.00
10897;BME280;5501;51.176;6.470;2023-02-02T02:01:51;101583.22;;;8.08;100.00
10897;BME280;5501;51.176;6.470;2023-02-02T02:06:53;101590.25;;;8.16;100.00
10897;BME280;5501;51.176;6.470;2023-02-02T02:11:54;101585.78;;;8.36;100.00
10897;BME280;5501;51.176;6.470;2023-02-02T02:17:21;101579.63;;;8.24;100.00
10897;BME280;5501;51.176;6.470;2023-02-02T02:28:33;101576.03;;;8.35;100.00
10897;BME280;5501;51.176;6.470;2023-02-02T02:38:53;101585.72;;;8.45;100.00
10897;BME280;5501;51.176;6.470;2023-02-02T02:44:03;101569.75;;;8.56;100.00
10897;BME280;5501;51.176;6.470;2023-02-02T02:49:10;101577.69;;;8.56;100.00
10897;BME280;5501;51.176;6.470;2023-02-02T02:54:17;101585.66;;;8.51;100.00
10897;BME280;5501;51.176;6.470;2023-02-02T02:59:33;101589.22;;;8.47;100.00
10897;BME280;5501;51.176;6.470;2023-02-02T03:09:47;101584.00;;;8.34;100.00
10897;BME280;5501;51.176;6.470;2023-02-02T03:14:49;101591.09;;;8.30;100.00
10897;BME280;5501;51.176;6.470;2023-02-02T03:19:51;101589.22;;;8.47;100.00
10897;BME280;5501;51.176;6.470;2023-02-02T03:24:52;101595.41;;;8.51;100.00
10897;BME280;5501;51.176;6.470;2023-02-02T03:29:54;101594.59;;;8.38;100.00
10897;BME280;5501;51.176;6.470;2023-02-02T03:34:55;101599.03;;;8.33;100.00
10897;BME280;5501;51.176;6.470;2023-02-02T03:39:57;101589.28;;;8.41;100.00
10897;BME280;5501;51.176;6.470;2023-02-02T03:44:58;101598.97;;;8.41;100.00
10897;BME280;5501;51.176;6.470;2023-02-02T03:50:00;101587.41;;;8.55;100.00
10897;BME280;5501;51.176;6.470;2023-02-02T03:55:01;101587.47;;;8.52;100.00
10897;BME280;5501;51.176;6.470;2023-02-02T04:00:03;101597.13;;;8.58;100.00
10897;BME280;5501;51.176;6.470;2023-02-02T04:05:12;101603.31;;;8.61;100.00
10897;BME280;5501;51.176;6.470;2023-02-02T04:10:13;101608.63;;;8.58;100.00
10897;BME280;5501;51.176;6.470;2023-02-02T04:15:15;101610.41;;;8.55;100.00
10897;BME280;5501;51.176;6.470;2023-02-02T04:20:16;101610.38;;;8.62;100.00
10897;BME280;5501;51.176;6.470;2023-02-02T04:25:18;101608.63;;;8.58;100.00
10897;BME280;5501;51.176;6.470;2023-02-02T04:30:19;101613.94;;;8.55;100.00
10897;BME280;5501;51.176;6.470;2023-02-02T04:35:21;101614.75;;;8.68;100.00
10897;BME280;5501;51.176;6.470;2023-02-02T04:40:23;101610.38;;;8.62;100.00
10897;BME280;5501;51.176;6.470;2023-02-02T04:45:24;101626.25;;;8.65;100.00
10897;BME280;5501;51.176;6.470;2023-02-02T04:50:27;101628.00;;;8.66;100.00
10897;BME280;5501;51.176;6.470;2023-02-02T04:55:28;101622.75;;;8.60;100.00
10897;BME280;5501;51.176;6.470;2023-02-02T05:00:30;101635.97;;;8.69;100.00
10897;BME280;5501;51.176;6.470;2023-02-02T05:05:31;101646.69;;;8.45;100.00
10897;BME280;5501;51.176;6.470;2023-02-02T05:10:33;101631.63;;;8.47;100.00
10897;BME280;5501;51.176;6.470;2023-02-02T05:15:34;101645.84;;;8.40;100.00
10897;BME280;5501;51.176;6.470;2023-02-02T05:20:36;101637.00;;;8.38;100.00
10897;BME280;5501;51.176;6.470;2023-02-02T05:25:37;101637.00;;;8.38;100.00
10897;BME280;5501;51.176;6.470;2023-02-02T05:30:39;101619.34;;;8.37;100.00
10897;BME280;5501;51.176;6.470;2023-02-02T05:35:40;101615.78;;;8.35;100.00
10897;BME280;5501;51.176;6.470;2023-02-02T05:40:42;101615.78;;;8.40;100.00
10897;BME280;5501;51.176;6.470;2023-02-02T05:45:43;101606.88;;;8.51;100.00
10897;BME280;5501;51.176;6.470;2023-02-02T05:50:48;101620.19;;;8.47;100.00
10897;BME280;5501;51.176;6.470;2023-02-02T05:55:50;101626.44;;;8.32;100.00
10897;BME280;5501;51.176;6.470;2023-02-02T06:00:51;101629.94;;;8.40;100.00
10897;BME280;5501;51.176;6.470;2023-02-02T06:05:56;101635.28;;;8.22;100.00
10897;BME280;5501;51.176;6.470;2023-02-02T06:10:58;101644.09;;;8.33;100.00
10897;BME280;5501;51.176;6.470;2023-02-02T06:15:59;101650.25;;;8.38;100.00
10897;BME280;5501;51.176;6.470;2023-02-02T06:21:02;101655.59;;;8.28;100.00
10897;BME280;5501;51.176;6.470;2023-02-02T06:26:05;101659.13;;;8.16;100.00
10897;BME280;5501;51.176;6.470;2023-02-02T06:31:10;101660.03;;;8.21;100.00
10897;BME280;5501;51.176;6.470;2023-02-02T06:36:11;101664.44;;;8.07;100.00
10897;BME280;5501;51.176;6.470;2023-02-02T06:41:13;101660.88;;;8.16;100.00
10897;BME280;5501;51.176;6.470;2023-02-02T06:46:15;101663.53;;;8.11;100.00
10897;BME280;5501;51.176;6.470;2023-02-02T06:51:16;101665.38;;;7.91;100.00
10897;BME280;5501;51.176;6.470;2023-02-02T06:56:18;101661.81;;;8.04;100.00
10897;BME280;5501;51.176;6.470;2023-02-02T07:01:20;101667.13;;;8.01;100.00
10897;BME280;5501;51.176;6.470;2023-02-02T07:06:26;101678.56;;;8.05;100.00
10897;BME280;5501;51.176;6.470;2023-02-02T07:11:32;101678.56;;;8.05;100.00
10897;BME280;5501;51.176;6.470;2023-02-02T07:16:44;101674.13;;;8.14;100.00
10897;BME280;5501;51.176;6.470;2023-02-02T07:21:45;101677.69;;;8.25;100.00
10897;BME280;5501;51.176;6.470;2023-02-02T07:26:46;101682.97;;;8.15;100.00
10897;BME280;5501;51.176;6.470;2023-02-02T07:31:48;101690.94;;;8.24;100.00
10897;BME280;5501;51.176;6.470;2023-02-02T07:36:50;101694.44;;;8.18;100.00
10897;BME280;5501;51.176;6.470;2023-02-02T07:41:51;101697.09;;;8.15;100.00
10897;BME280;5501;51.176;6.470;2023-02-02T07:47:04;101696.22;;;8.18;100.00
10897;BME280;5501;51.176;6.470;2023-02-02T07:52:05;101697.09;;;8.36;100.00
10897;BME280;5501;51.176;6.470;2023-02-02T07:57:07;101692.69;;;8.19;100.00
10897;BME280;5501;51.176;6.470;2023-02-02T08:02:09;101698.88;;;8.16;100.00
10897;BME280;5501;51.176;6.470;2023-02-02T08:07:10;101692.72;;;8.22;100.00
10897;BME280;5501;51.176;6.470;2023-02-02T08:12:14;101705.94;;;8.23;100.00
10897;BME280;5501;51.176;6.470;2023-02-02T08:17:15;101711.19;;;8.35;100.00
10897;BME280;5501;51.176;6.470;2023-02-02T08:22:17;101709.41;;;8.49;100.00
10897;BME280;5501;51.176;6.470;2023-02-02T08:27:20;101718.22;;;8.54;100.00
10897;BME280;5501;51.176;6.470;2023-02-02T08:32:22;101716.47;;;8.53;100.00
10897;BME280;5501;51.176;6.470;2023-02-02T08:37:23;101724.38;;;8.65;100.00
10897;BME280;5501;51.176;6.470;2023-02-02T08:42:25;101737.66;;;8.50;100.00
10897;BME280;5501;51.176;6.470;2023-02-02T08:47:29;101730.63;;;8.52;100.00
10897;BME280;5501;51.176;6.470;2023-02-02T08:52:31;101733.25;;;8.52;100.00
10897;BME280;5501;51.176;6.470;2023-02-02T08:57:32;101746.53;;;8.48;100.00
10897;BME280;5501;51.176;6.470;2023-02-02T09:02:34;101755.38;;;8.18;100.00
10897;BME280;5501;51.176;6.470;2023-02-02T09:07:36;101748.34;;;8.23;100.00
10897;BME280;5501;51.176;6.470;2023-02-02T09:12:37;101760.72;;;8.23;100.00
10897;BME280;5501;51.176;6.470;2023-02-02T09:17:39;101772.19;;;8.26;100.00
10897;BME280;5501;51.176;6.470;2023-02-02T09:22:40;101784.53;;;8.29;100.00
10897;BME280;5501;51.176;6.470;2023-02-02T09:27:42;101802.22;;;8.33;100.00
10897;BME280;5501;51.176;6.470;2023-02-02T09:32:43;101805.75;;;8.48;100.00
10897;BME280;5501;51.176;6.470;2023-02-02T09:37:45;101826.94;;;8.30;100.00
10897;BME280;5501;51.176;6.470;2023-02-02T09:42:53;101839.31;;;8.36;100.00
10897;BME280;5501;51.176;6.470;2023-02-02T09:48:19;101836.66;;;8.22;100.00
10897;BME280;5501;51.176;6.470;2023-02-02T09:53:39;101838.44;;;8.26;100.00
10897;BME280;5501;51.176;6.470;2023-02-02T09:58:58;101869.31;;;8.06;100.00
10897;BME280;5501;51.176;6.470;2023-02-02T10:14:57;101849.03;;;8.23;100.00
10897;BME280;5501;51.176;6.470;2023-02-02T10:20:03;101887.91;;;8.45;100.00
10897;BME280;5501;51.176;6.470;2023-02-02T10:25:11;101882.59;;;8.51;100.00
10897;BME280;5501;51.176;6.470;2023-02-02T10:30:18;101885.25;;;8.69;100.00
10897;BME280;5501;51.176;6.470;2023-02-02T10:46:56;101889.63;;;8.82;100.00
10897;BME280;5501;51.176;6.470;2023-02-02T10:51:32;101886.09;;;8.83;100.00
10897;BME280;5501;51.176;6.470;2023-02-02T10:56:37;101886.94;;;8.91;100.00
10897;BME280;5501;51.176;6.470;2023-02-02T11:01:39;101894.03;;;8.85;100.00
10897;BME280;5501;51.176;6.470;2023-02-02T11:06:41;101896.66;;;8.97;100.00
10897;BME280;5501;51.176;6.470;2023-02-02T11:11:54;101907.28;;;9.01;100.00
10897;BME280;5501;51.176;6.470;2023-02-02T11:17:04;101919.66;;;8.96;100.00
10897;BME280;5501;51.176;6.470;2023-02-02T11:22:22;101903.72;;;8.96;100.00
10897;BME280;5501;51.176;6.470;2023-02-02T11:27:30;101905.53;;;8.94;100.00
10897;BME280;5501;51.176;6.470;2023-02-02T11:32:32;101909.00;;;9.08;100.00
10897;BME280;5501;51.176;6.470;2023-02-02T11:37:36;101912.56;;;9.12;100.00
10897;BME280;5501;51.176;6.470;2023-02-02T11:42:44;101908.94;;;9.32;100.00
10897;BME280;5501;51.176;6.470;2023-02-02T11:47:49;101893.94;;;9.22;100.00
10897;BME280;5501;51.176;6.470;2023-02-02T11:52:52;101882.34;;;9.44;100.00
10897;BME280;5501;51.176;6.470;2023-02-02T11:58:19;101888.47;;;9.60;99.97
10897;BME280;5501;51.176;6.470;2023-02-02T12:03:33;101884.84;;;9.70;99.60
10897;BME280;5501;51.176;6.470;2023-02-02T12:08:35;101872.41;;;9.79;98.16
10897;BME280;5501;51.176;6.470;2023-02-02T12:13:52;101887.53;;;9.65;97.25
10897;BME280;5501;51.176;6.470;2023-02-02T12:19:12;101863.69;;;9.56;98.40
10897;BME280;5501;51.176;6.470;2023-02-02T12:24:30;101876.06;;;9.60;98.48
10897;BME280;5501;51.176;6.470;2023-02-02T12:34:58;101873.31;;;9.78;95.54
10897;BME280;5501;51.176;6.470;2023-02-02T12:45:41;101878.44;;;10.08;94.25
10897;BME280;5501;51.176;6.470;2023-02-02T12:51:05;101869.53;;;10.15;93.44
10897;BME280;5501;51.176;6.470;2023-02-02T12:56:31;101866.97;;;9.96;94.81
10897;BME280;5501;51.176;6.470;2023-02-02T13:07:29;101873.25;;;9.84;94.43
10897;BME280;5501;51.176;6.470;2023-02-02T13:12:38;101873.31;;;9.72;95.27
10897;BME280;5501;51.176;6.470;2023-02-02T13:17:47;101876.91;;;9.68;95.02
10897;BME280;5501;51.176;6.470;2023-02-02T13:22:55;101879.47;;;9.83;94.41
10897;BME280;5501;51.176;6.470;2023-02-02T13:27:59;101876.84;;;9.76;94.43
10897;BME280;5501;51.176;6.470;2023-02-02T13:33:12;101873.31;;;9.78;94.17
10897;BME280;5501;51.176;6.470;2023-02-02T13:38:24;101870.66;;;9.75;95.08
10897;BME280;5501;51.176;6.470;2023-02-02T13:43:44;101876.75;;;9.92;94.58
10897;BME280;5501;51.176;6.470;2023-02-02T13:48:52;101875.00;;;9.88;94.04
10897;BME280;5501;51.176;6.470;2023-02-02T13:54:18;101882.88;;;10.02;93.19
10897;BME280;5501;51.176;6.470;2023-02-02T14:04:56;101874.94;;;9.94;94.14
10897;BME280;5501;51.176;6.470;2023-02-02T14:09:59;101879.47;;;9.86;94.09
10897;BME280;5501;51.176;6.470;2023-02-02T14:15:00;101875.84;;;9.96;93.33
10897;BME280;5501;51.176;6.470;2023-02-02T14:20:03;101879.41;;;9.94;92.70
10897;BME280;5501;51.176;6.470;2023-02-02T14:30:38;101878.44;;;10.02;92.22
10897;BME280;5501;51.176;6.470;2023-02-02T14:51:20;101908.69;;;9.83;96.61
10897;BME280;5501;51.176;6.470;2023-02-02T15:01:43;101905.22;;;9.69;95.78
10897;BME280;5501;51.176;6.470;2023-02-02T15:06:53;101915.69;;;9.96;94.90
10897;BME280;5501;51.176;6.470;2023-02-02T15:27:28;101920.97;;;10.08;93.62
10897;BME280;5501;51.176;6.470;2023-02-02T15:32:31;101920.88;;;10.23;93.74
10897;BME280;5501;51.176;6.470;2023-02-02T15:37:35;101923.59;;;10.04;93.43
10897;BME280;5501;51.176;6.470;2023-02-02T15:42:44;101940.44;;;10.10;93.71
10897;BME280;5501;51.176;6.470;2023-02-02T15:47:54;101951.09;;;10.01;93.63
10897;BME280;5501;51.176;6.470;2023-02-02T15:52:57;101953.91;;;9.74;96.68
10897;BME280;5501;51.176;6.470;2023-02-02T15:58:00;101951.16;;;9.92;97.92
10897;BME280;5501;51.176;6.470;2023-02-02T16:03:07;101960.94;;;9.86;98.71
10897;BME280;5501;51.176;6.470;2023-02-02T16:08:36;101960.03;;;9.85;100.00
10897;BME280;5501;51.176;6.470;2023-02-02T16:13:37;101974.28;;;9.72;100.00
10897;BME280;5501;51.176;6.470;2023-02-02T16:18:40;101975.22;;;9.59;100.00
10897;BME280;5501;51.176;6.470;2023-02-02T16:23:41;101992.09;;;9.39;100.00
10897;BME280;5501;51.176;6.470;2023-02-02T16:28:43;101988.53;;;9.41;100.00
10897;BME280;5501;51.176;6.470;2023-02-02T16:33:47;102001.00;;;9.21;100.00
10897;BME280;5501;51.176;6.470;2023-02-02T16:38:49;101998.31;;;9.30;100.00
10897;BME280;5501;51.176;6.470;2023-02-02T16:43:53;102006.28;;;9.30;100.00
10897;BME280;5501;51.176;6.470;2023-02-02T16:48:57;102013.38;;;9.31;100.00
10897;BME280;5501;51.176;6.470;2023-02-02T16:59:17;102016.06;;;9.10;100.00
10897;BME280;5501;51.176;6.470;2023-02-02T17:04:25;102023.13;;;9.16;100.00
10897;BME280;5501;51.176;6.470;2023-02-02T17:09:41;102020.47;;;9.11;100.00
10897;BME280;5501;51.176;6.470;2023-02-02T17:14:57;102024.00;;;9.04;100.00
10897;BME280;5501;51.176;6.470;2023-02-02T17:20:04;102028.44;;;9.04;100.00
10897;BME280;5501;51.176;6.470;2023-02-02T17:25:13;102026.69;;;9.13;100.00
10897;BME280;5501;51.176;6.470;2023-02-02T17:30:16;102029.31;;;8.95;100.00
10897;BME280;5501;51.176;6.470;2023-02-02T17:35:21;102022.25;;;9.03;100.00
10897;BME280;5501;51.176;6.470;2023-02-02T17:40:24;102032.88;;;8.94;100.00
10897;BME280;5501;51.176;6.470;2023-02-02T17:45:31;102039.94;;;8.92;100.00
10897;BME280;5501;51.176;6.470;2023-02-02T17:50:35;102041.69;;;8.96;100.00
10897;BME280;5501;51.176;6.470;2023-02-02T17:55:38;102043.47;;;8.99;100.00
10897;BME280;5501;51.176;6.470;2023-02-02T18:00:48;102042.59;;;8.92;100.00
10897;BME280;5501;51.176;6.470;2023-02-02T18:05:51;102045.25;;;8.98;100.00
10897;BME280;5501;51.176;6.470;2023-02-02T18:10:53;102053.22;;;9.01;100.00
10897;BME280;5501;51.176;6.470;2023-02-02T18:15:54;102052.31;;;8.96;100.00
10897;BME280;5501;51.176;6.470;2023-02-02T18:20:56;102045.22;;;8.92;100.00
10897;BME280;5501;51.176;6.470;2023-02-02T18:26:10;102052.31;;;8.96;100.00
10897;BME280;5501;51.176;6.470;2023-02-02T18:31:14;102036.38;;;8.96;100.00
10897;BME280;5501;51.176;6.470;2023-02-02T18:36:18;102047.91;;;9.12;100.00
10897;BME280;5501;51.176;6.470;2023-02-02T18:41:21;102057.66;;;9.05;100.00
10897;BME280;5501;51.176;6.470;2023-02-02T18:46:22;102051.44;;;9.03;100.00
10897;BME280;5501;51.176;6.470;2023-02-02T18:51:24;102035.50;;;9.11;100.00
10897;BME280;5501;51.176;6.470;2023-02-02T18:56:27;102027.53;;;9.12;100.00
10897;BME280;5501;51.176;6.470;2023-02-02T19:01:29;102020.50;;;9.05;100.00
10897;BME280;5501;51.176;6.470;2023-02-02T19:06:30;102037.28;;;9.00;100.00
10897;BME280;5501;51.176;6.470;2023-02-02T19:11:51;102029.34;;;9.01;100.00
10897;BME280;5501;51.176;6.470;2023-02-02T19:17:04;102034.63;;;8.92;100.00
10897;BME280;5501;51.176;6.470;2023-02-02T19:22:23;102042.56;;;9.04;100.00
10897;BME280;5501;51.176;6.470;2023-02-02T19:27:25;102036.38;;;8.96;100.00
10897;BME280;5501;51.176;6.470;2023-02-02T19:32:30;102052.34;;;8.95;100.00
10897;BME280;5501;51.176;6.470;2023-02-02T19:37:37;102054.09;;;8.94;100.00
10897;BME280;5501;51.176;6.470;2023-02-02T19:42:45;102058.50;;;9.04;100.00
10897;BME280;5501;51.176;6.470;2023-02-02T19:47:47;102052.31;;;9.11;100.00
10897;BME280;5501;51.176;6.470;2023-02-02T19:52:52;102055.84;;;9.16;100.00
10897;BME280;5501;51.176;6.470;2023-02-02T19:58:12;102055.84;;;9.16;100.00
10897;BME280;5501;51.176;6.470;2023-02-02T20:03:22;102044.34;;;9.20;100.00
10897;BME280;5501;51.176;6.470;2023-02-02T20:13:44;102025.75;;;9.32;100.00
10897;BME280;5501;51.176;6.470;2023-02-02T20:18:52;102027.53;;;9.24;100.00
10897;BME280;5501;51.176;6.470;2023-02-02T20:23:54;102026.63;;;9.36;100.00
10897;BME280;5501;51.176;6.470;2023-02-02T20:34:32;102026.63;;;9.36;100.00
10897;BME280;5501;51.176;6.470;2023-02-02T20:39:39;102031.91;;;9.39;100.00
10897;BME280;5501;51.176;6.470;2023-02-02T20:44:41;102030.16;;;9.38;100.00
10897;BME280;5501;51.176;6.470;2023-02-02T20:49:43;102029.25;;;9.37;100.00
10897;BME280;5501;51.176;6.470;2023-02-02T20:54:45;102036.38;;;9.35;100.00
10897;BME280;5501;51.176;6.470;2023-02-02T20:59:47;102043.41;;;9.45;100.00
10897;BME280;5501;51.176;6.470;2023-02-02T21:04:49;102039.88;;;9.37;100.00
10897;BME280;5501;51.176;6.470;2023-02-02T21:09:51;102050.50;;;9.37;100.00
10897;BME280;5501;51.176;6.470;2023-02-02T21:14:53;102068.19;;;9.41;100.00
10897;BME280;5501;51.176;6.470;2023-02-02T21:19:55;102068.19;;;9.47;100.00
10897;BME280;5501;51.176;6.470;2023-02-02T21:24:56;102076.16;;;9.47;100.00
10897;BME280;5501;51.176;6.470;2023-02-02T21:29:58;102081.44;;;9.53;100.00
10897;BME280;5501;51.176;6.470;2023-02-02T21:34:59;102091.19;;;9.45;100.00
10897;BME280;5501;51.176;6.470;2023-02-02T21:40:06;102089.44;;;9.41;100.00
10897;BME280;5501;51.176;6.470;2023-02-02T21:55:34;102078.81;;;9.46;100.00
10897;BME280;5501;51.176;6.470;2023-02-02T22:00:37;102077.94;;;9.54;100.00
10897;BME280;5501;51.176;6.470;2023-02-02T22:05:39;102082.34;;;9.55;100.00
10897;BME280;5501;51.176;6.470;2023-02-02T22:10:41;102079.72;;;9.45;100.00
10897;BME280;5501;51.176;6.470;2023-02-02T22:15:47;102064.66;;;9.54;100.00
10897;BME280;5501;51.176;6.470;2023-02-02T22:20:52;102068.19;;;9.47;100.00
10897;BME280;5501;51.176;6.470;2023-02-02T22:25:56;102073.50;;;9.53;100.00
10897;BME280;5501;51.176;6.470;2023-02-02T22:30:58;102055.81;;;9.46;100.00
10897;BME280;5501;51.176;6.470;2023-02-02T22:36:01;102064.66;;;9.51;100.00
10897;BME280;5501;51.176;6.470;2023-02-02T22:41:04;102066.41;;;9.52;100.00
10897;BME280;5501;51.176;6.470;2023-02-02T22:46:06;102072.59;;;9.66;100.00
10897;BME280;5501;51.176;6.470;2023-02-02T22:51:08;102054.91;;;9.55;100.00
10897;BME280;5501;51.176;6.470;2023-02-02T22:56:09;102056.66;;;9.62;100.00
10897;BME280;5501;51.176;6.470;2023-02-02T23:01:11;102071.72;;;9.55;100.00
10897;BME280;5501;51.176;6.470;2023-02-02T23:06:13;102073.50;;;9.62;100.00
10897;BME280;5501;51.176;6.470;2023-02-02T23:11:15;102064.59;;;9.69;100.00
10897;BME280;5501;51.176;6.470;2023-02-02T23:16:16;102066.38;;;9.61;100.00
10897;BME280;5501;51.176;6.470;2023-02-02T23:21:18;102062.84;;;9.65;100.00
10897;BME280;5501;51.176;6.470;2023-02-02T23:26:20;102066.38;;;9.66;100.00
10897;BME280;5501;51.176;6.470;2023-02-02T23:31:22;102066.38;;;9.67;100.00
10897;BME280;5501;51.176;6.470;2023-02-02T23:36:23;102057.53;;;9.68;100.00
10897;BME280;5501;51.176;6.470;2023-02-02T23:41:25;102046.91;;;9.71;100.00
10897;BME280;5501;51.176;6.470;2023-02-02T23:46:26;102034.50;;;9.67;100.00
10897;BME280;5501;51.176;6.470;2023-02-02T23:51:28;102025.66;;;9.71;100.00
10897;BME280;5501;51.176;6.470;2023-02-02T23:56:30;102013.22;;;9.73;100.00
